sensor_id;sensor_type;location;lat;lon;timestamp;P1;durP1;ratioP1;P2;durP2;ratioP2
11496;SDS011;5805;51.542;7.230;2022-12-29T00:00:00;0.47;;;0.47;;
11496;SDS011;5805;51.542;7.230;2022-12-29T00:02:25;0.73;;;0.40;;
11496;SDS011;5805;51.542;7.230;2022-12-29T00:04:52;0.68;;;0.63;;
11496;SDS011;5805;51.542;7.230;2022-12-29T00:07:18;1.70;;;0.60;;
11496;SDS011;5805;51.542;7.230;2022-12-29T00:09:44;1.10;;;0.60;;
11496;SDS011;5805;51.542;7.230;2022-12-29T00:12:10;0.55;;;0.50;;
11496;SDS011;5805;51.542;7.230;2022-12-29T00:14:35;1.35;;;0.80;;
11496;SDS011;5805;51.542;7.230;2022-12-29T00:17:01;1.05;;;0.70;;
11496;SDS011;5805;51.542;7.230;2022-12-29T00:19:27;0.82;;;0.60;;
11496;SDS011;5805;51.542;7.230;2022-12-29T00:21:54;0.93;;;0.70;;
11496;SDS011;5805;51.542;7.230;2022-12-29T00:24:21;0.50;;;0.40;;
11496;SDS011;5805;51.542;7.230;2022-12-29T00:26:47;1.20;;;0.70;;
11496;SDS011;5805;51.542;7.230;2022-12-29T00:29:13;0.73;;;0.45;;
11496;SDS011;5805;51.542;7.230;2022-12-29T00:31:38;3.33;;;0.73;;
11496;SDS011;5805;51.542;7.230;2022-12-29T00:34:06;0.80;;;0.50;;
11496;SDS011;5805;51.542;7.230;2022-12-29T00:36:35;0.77;;;0.77;;
11496;SDS011;5805;51.542;7.230;2022-12-29T00:39:05;1.05;;;0.70;;
11496;SDS011;5805;51.542;7.230;2022-12-29T00:41:33;1.35;;;0.80;;
11496;SDS011;5805;51.542;7.230;2022-12-29T00:43:59;1.65;;;0.77;;
11496;SDS011;5805;51.542;7.230;2022-12-29T00:46:25;0.80;;;0.70;;
11496;SDS011;5805;51.542;7.230;2022-12-29T00:48:50;1.17;;;1.00;;
11496;SDS011;5805;51.542;7.230;2022-12-29T00:51:16;2.38;;;0.80;;
11496;SDS011;5805;51.542;7.230;2022-12-29T00:53:42;0.90;;;0.90;;
11496;SDS011;5805;51.542;7.230;2022-12-29T00:56:09;0.88;;;0.82;;
11496;SDS011;5805;51.542;7.230;2022-12-29T00:58:34;0.80;;;0.80;;
11496;SDS011;5805;51.542;7.230;2022-12-29T01:01:00;0.77;;;0.70;;
11496;SDS011;5805;51.542;7.230;2022-12-29T01:03:26;0.55;;;0.55;;
11496;SDS011;5805;51.542;7.230;2022-12-29T01:05:52;0.70;;;0.70;;
11496;SDS011;5805;51.542;7.230;2022-12-29T01:08:18;1.33;;;0.70;;
11496;SDS011;5805;51.542;7.230;2022-12-29T01:10:43;0.75;;;0.60;;
11496;SDS011;5805;51.542;7.230;2022-12-29T01:13:10;0.85;;;0.63;;
11496;SDS011;5805;51.542;7.230;2022-12-29T01:15:36;2.30;;;0.57;;
11496;SDS011;5805;51.542;7.230;2022-12-29T01:18:02;0.70;;;0.70;;
11496;SDS011;5805;51.542;7.230;2022-12-29T01:20:27;0.60;;;0.60;;
11496;SDS011;5805;51.542;7.230;2022-12-29T01:22:53;0.40;;;0.40;;
11496;SDS011;5805;51.542;7.230;2022-12-29T01:25:19;1.10;;;0.50;;
11496;SDS011;5805;51.542;7.230;2022-12-29T01:27:45;0.35;;;0.35;;
11496;SDS011;5805;51.542;7.230;2022-12-29T01:30:12;0.50;;;0.50;;
11496;SDS011;5805;51.542;7.230;2022-12-29T01:32:38;1.17;;;0.70;;
11496;SDS011;5805;51.542;7.230;2022-12-29T01:35:04;0.40;;;0.40;;
11496;SDS011;5805;51.542;7.230;2022-12-29T01:37:30;0.68;;;0.40;;
11496;SDS011;5805;51.542;7.230;2022-12-29T01:39:55;0.50;;;0.40;;
11496;SDS011;5805;51.542;7.230;2022-12-29T01:42:22;0.47;;;0.47;;
11496;SDS011;5805;51.542;7.230;2022-12-29T01:44:51;0.20;;;0.20;;
11496;SDS011;5805;51.542;7.230;2022-12-29T01:47:22;0.85;;;0.50;;
11496;SDS011;5805;51.542;7.230;2022-12-29T01:49:54;0.68;;;0.40;;
11496;SDS011;5805;51.542;7.230;2022-12-29T01:52:22;0.30;;;0.30;;
11496;SDS011;5805;51.542;7.230;2022-12-29T01:54:49;0.35;;;0.25;;
11496;SDS011;5805;51.542;7.230;2022-12-29T01:57:20;0.40;;;0.40;;
11496;SDS011;5805;51.542;7.230;2022-12-29T01:59:49;0.40;;;0.30;;
11496;SDS011;5805;51.542;7.230;2022-12-29T02:02:18;0.40;;;0.40;;
11496;SDS011;5805;51.542;7.230;2022-12-29T02:04:46;0.30;;;0.20;;
11496;SDS011;5805;51.542;7.230;2022-12-29T02:07:13;0.20;;;0.20;;
11496;SDS011;5805;51.542;7.230;2022-12-29T02:09:42;0.50;;;0.47;;
11496;SDS011;5805;51.542;7.230;2022-12-29T02:12:08;0.32;;;0.32;;
11496;SDS011;5805;51.542;7.230;2022-12-29T02:14:35;0.70;;;0.40;;
11496;SDS011;5805;51.542;7.230;2022-12-29T02:17:02;0.40;;;0.38;;
11496;SDS011;5805;51.542;7.230;2022-12-29T02:19:45;0.50;;;0.40;;
11496;SDS011;5805;51.542;7.230;2022-12-29T02:22:48;0.65;;;0.65;;
11496;SDS011;5805;51.542;7.230;2022-12-29T02:28:27;0.30;;;0.30;;
11496;SDS011;5805;51.542;7.230;2022-12-29T02:31:15;0.25;;;0.25;;
11496;SDS011;5805;51.542;7.230;2022-12-29T02:33:48;0.80;;;0.30;;
11496;SDS011;5805;51.542;7.230;2022-12-29T02:36:27;0.40;;;0.40;;
11496;SDS011;5805;51.542;7.230;2022-12-29T02:38:59;0.20;;;0.20;;
11496;SDS011;5805;51.542;7.230;2022-12-29T02:41:31;0.20;;;0.20;;
11496;SDS011;5805;51.542;7.230;2022-12-29T02:43:59;0.75;;;0.30;;
11496;SDS011;5805;51.542;7.230;2022-12-29T02:46:35;0.70;;;0.30;;
11496;SDS011;5805;51.542;7.230;2022-12-29T02:49:09;0.65;;;0.30;;
11496;SDS011;5805;51.542;7.230;2022-12-29T02:51:39;0.45;;;0.45;;
11496;SDS011;5805;51.542;7.230;2022-12-29T02:54:11;0.60;;;0.40;;
11496;SDS011;5805;51.542;7.230;2022-12-29T02:56:37;3.33;;;0.47;;
11496;SDS011;5805;51.542;7.230;2022-12-29T02:59:03;2.40;;;0.40;;
11496;SDS011;5805;51.542;7.230;2022-12-29T03:01:33;0.90;;;0.40;;
11496;SDS011;5805;51.542;7.230;2022-12-29T03:04:15;1.17;;;0.50;;
11496;SDS011;5805;51.542;7.230;2022-12-29T03:06:51;0.50;;;0.30;;
11496;SDS011;5805;51.542;7.230;2022-12-29T03:09:24;4.03;;;0.68;;
11496;SDS011;5805;51.542;7.230;2022-12-29T03:12:02;1.45;;;0.50;;
11496;SDS011;5805;51.542;7.230;2022-12-29T03:14:36;2.63;;;0.45;;
11496;SDS011;5805;51.542;7.230;2022-12-29T03:17:11;1.15;;;0.40;;
11496;SDS011;5805;51.542;7.230;2022-12-29T03:19:46;0.32;;;0.32;;
11496;SDS011;5805;51.542;7.230;2022-12-29T03:22:17;0.68;;;0.68;;
11496;SDS011;5805;51.542;7.230;2022-12-29T03:24:46;0.70;;;0.50;;
11496;SDS011;5805;51.542;7.230;2022-12-29T03:27:15;0.63;;;0.40;;
11496;SDS011;5805;51.542;7.230;2022-12-29T03:29:48;0.70;;;0.50;;
11496;SDS011;5805;51.542;7.230;2022-12-29T03:32:18;0.95;;;0.30;;
11496;SDS011;5805;51.542;7.230;2022-12-29T03:34:46;1.08;;;0.50;;
11496;SDS011;5805;51.542;7.230;2022-12-29T03:37:14;2.03;;;0.68;;
11496;SDS011;5805;51.542;7.230;2022-12-29T03:39:41;0.60;;;0.60;;
11496;SDS011;5805;51.542;7.230;2022-12-29T03:42:08;0.60;;;0.50;;
11496;SDS011;5805;51.542;7.230;2022-12-29T03:44:37;0.55;;;0.40;;
11496;SDS011;5805;51.542;7.230;2022-12-29T03:47:05;0.88;;;0.57;;
11496;SDS011;5805;51.542;7.230;2022-12-29T03:49:32;0.98;;;0.50;;
11496;SDS011;5805;51.542;7.230;2022-12-29T03:51:58;2.40;;;0.60;;
11496;SDS011;5805;51.542;7.230;2022-12-29T03:54:24;0.70;;;0.38;;
11496;SDS011;5805;51.542;7.230;2022-12-29T03:56:51;0.95;;;0.45;;
11496;SDS011;5805;51.542;7.230;2022-12-29T03:59:16;0.68;;;0.65;;
11496;SDS011;5805;51.542;7.230;2022-12-29T04:01:42;2.55;;;0.65;;
11496;SDS011;5805;51.542;7.230;2022-12-29T04:04:08;1.23;;;0.45;;
11496;SDS011;5805;51.542;7.230;2022-12-29T04:06:35;0.50;;;0.40;;
11496;SDS011;5805;51.542;7.230;2022-12-29T04:09:00;3.33;;;0.73;;
11496;SDS011;5805;51.542;7.230;2022-12-29T04:11:26;0.82;;;0.50;;
11496;SDS011;5805;51.542;7.230;2022-12-29T04:13:52;1.27;;;0.80;;
11496;SDS011;5805;51.542;7.230;2022-12-29T04:16:17;0.60;;;0.40;;
11496;SDS011;5805;51.542;7.230;2022-12-29T04:18:43;2.47;;;0.52;;
11496;SDS011;5805;51.542;7.230;2022-12-29T04:21:09;1.30;;;0.60;;
11496;SDS011;5805;51.542;7.230;2022-12-29T04:23:36;1.15;;;0.60;;
11496;SDS011;5805;51.542;7.230;2022-12-29T04:26:03;2.88;;;0.50;;
11496;SDS011;5805;51.542;7.230;2022-12-29T04:28:31;1.00;;;0.50;;
11496;SDS011;5805;51.542;7.230;2022-12-29T04:30:57;2.63;;;0.52;;
11496;SDS011;5805;51.542;7.230;2022-12-29T04:33:22;2.95;;;0.52;;
11496;SDS011;5805;51.542;7.230;2022-12-29T04:35:48;0.52;;;0.30;;
11496;SDS011;5805;51.542;7.230;2022-12-29T04:38:14;0.75;;;0.47;;
11496;SDS011;5805;51.542;7.230;2022-12-29T04:40:43;0.32;;;0.30;;
11496;SDS011;5805;51.542;7.230;2022-12-29T04:43:09;0.98;;;0.38;;
11496;SDS011;5805;51.542;7.230;2022-12-29T04:45:35;2.38;;;0.57;;
11496;SDS011;5805;51.542;7.230;2022-12-29T04:48:01;0.68;;;0.47;;
11496;SDS011;5805;51.542;7.230;2022-12-29T04:50:27;0.38;;;0.38;;
11496;SDS011;5805;51.542;7.230;2022-12-29T04:52:53;0.30;;;0.30;;
11496;SDS011;5805;51.542;7.230;2022-12-29T04:55:19;0.80;;;0.25;;
11496;SDS011;5805;51.542;7.230;2022-12-29T04:57:46;0.40;;;0.30;;
11496;SDS011;5805;51.542;7.230;2022-12-29T05:00:12;1.48;;;0.65;;
11496;SDS011;5805;51.542;7.230;2022-12-29T05:02:38;0.43;;;0.43;;
11496;SDS011;5805;51.542;7.230;2022-12-29T05:05:04;0.35;;;0.35;;
11496;SDS011;5805;51.542;7.230;2022-12-29T05:07:30;0.30;;;0.30;;
11496;SDS011;5805;51.542;7.230;2022-12-29T05:09:56;1.77;;;0.82;;
11496;SDS011;5805;51.542;7.230;2022-12-29T05:12:22;0.65;;;0.50;;
11496;SDS011;5805;51.542;7.230;2022-12-29T05:14:49;0.43;;;0.43;;
11496;SDS011;5805;51.542;7.230;2022-12-29T05:17:14;0.50;;;0.40;;
11496;SDS011;5805;51.542;7.230;2022-12-29T05:19:40;0.50;;;0.38;;
11496;SDS011;5805;51.542;7.230;2022-12-29T05:22:06;0.50;;;0.40;;
11496;SDS011;5805;51.542;7.230;2022-12-29T05:24:31;0.73;;;0.70;;
11496;SDS011;5805;51.542;7.230;2022-12-29T05:26:57;0.30;;;0.30;;
11496;SDS011;5805;51.542;7.230;2022-12-29T05:29:23;1.45;;;0.40;;
11496;SDS011;5805;51.542;7.230;2022-12-29T05:31:50;1.92;;;0.68;;
11496;SDS011;5805;51.542;7.230;2022-12-29T05:34:15;1.50;;;0.57;;
11496;SDS011;5805;51.542;7.230;2022-12-29T05:36:41;2.42;;;0.52;;
11496;SDS011;5805;51.542;7.230;2022-12-29T05:39:07;1.90;;;0.80;;
11496;SDS011;5805;51.542;7.230;2022-12-29T05:41:32;1.35;;;0.70;;
11496;SDS011;5805;51.542;7.230;2022-12-29T05:43:58;0.45;;;0.35;;
11496;SDS011;5805;51.542;7.230;2022-12-29T05:46:24;1.25;;;0.50;;
11496;SDS011;5805;51.542;7.230;2022-12-29T05:48:51;1.73;;;0.50;;
11496;SDS011;5805;51.542;7.230;2022-12-29T05:51:16;1.70;;;0.60;;
11496;SDS011;5805;51.542;7.230;2022-12-29T05:53:42;1.60;;;0.68;;
11496;SDS011;5805;51.542;7.230;2022-12-29T05:56:08;2.03;;;0.60;;
11496;SDS011;5805;51.542;7.230;2022-12-29T05:58:34;1.67;;;0.73;;
11496;SDS011;5805;51.542;7.230;2022-12-29T06:00:59;1.50;;;0.80;;
11496;SDS011;5805;51.542;7.230;2022-12-29T06:03:25;1.42;;;0.40;;
11496;SDS011;5805;51.542;7.230;2022-12-29T06:05:52;2.00;;;0.45;;
11496;SDS011;5805;51.542;7.230;2022-12-29T06:08:18;0.52;;;0.52;;
11496;SDS011;5805;51.542;7.230;2022-12-29T06:10:43;1.33;;;0.60;;
11496;SDS011;5805;51.542;7.230;2022-12-29T06:13:09;0.90;;;0.57;;
11496;SDS011;5805;51.542;7.230;2022-12-29T06:15:35;0.95;;;0.40;;
11496;SDS011;5805;51.542;7.230;2022-12-29T06:18:00;1.23;;;0.45;;
11496;SDS011;5805;51.542;7.230;2022-12-29T06:20:26;0.95;;;0.60;;
11496;SDS011;5805;51.542;7.230;2022-12-29T06:22:54;1.60;;;0.60;;
11496;SDS011;5805;51.542;7.230;2022-12-29T06:25:19;3.90;;;0.60;;
11496;SDS011;5805;51.542;7.230;2022-12-29T06:27:46;0.80;;;0.50;;
11496;SDS011;5805;51.542;7.230;2022-12-29T06:30:12;2.47;;;0.50;;
11496;SDS011;5805;51.542;7.230;2022-12-29T06:32:38;1.88;;;0.60;;
11496;SDS011;5805;51.542;7.230;2022-12-29T06:35:04;0.57;;;0.52;;
11496;SDS011;5805;51.542;7.230;2022-12-29T06:37:30;1.33;;;0.70;;
11496;SDS011;5805;51.542;7.230;2022-12-29T06:39:57;2.60;;;0.60;;
11496;SDS011;5805;51.542;7.230;2022-12-29T06:42:23;0.75;;;0.60;;
11496;SDS011;5805;51.542;7.230;2022-12-29T06:44:48;2.22;;;0.88;;
11496;SDS011;5805;51.542;7.230;2022-12-29T06:47:14;0.75;;;0.73;;
11496;SDS011;5805;51.542;7.230;2022-12-29T06:49:40;3.90;;;0.60;;
11496;SDS011;5805;51.542;7.230;2022-12-29T06:52:06;1.77;;;0.63;;
11496;SDS011;5805;51.542;7.230;2022-12-29T06:54:31;1.70;;;0.40;;
11496;SDS011;5805;51.542;7.230;2022-12-29T06:56:59;1.13;;;0.68;;
11496;SDS011;5805;51.542;7.230;2022-12-29T06:59:25;1.40;;;0.60;;
11496;SDS011;5805;51.542;7.230;2022-12-29T07:01:50;2.92;;;1.10;;
11496;SDS011;5805;51.542;7.230;2022-12-29T07:04:16;1.38;;;0.70;;
11496;SDS011;5805;51.542;7.230;2022-12-29T07:06:42;1.58;;;0.63;;
11496;SDS011;5805;51.542;7.230;2022-12-29T07:09:07;1.90;;;0.70;;
11496;SDS011;5805;51.542;7.230;2022-12-29T07:11:34;1.83;;;0.73;;
11496;SDS011;5805;51.542;7.230;2022-12-29T07:14:01;1.27;;;0.60;;
11496;SDS011;5805;51.542;7.230;2022-12-29T07:16:27;0.90;;;0.75;;
11496;SDS011;5805;51.542;7.230;2022-12-29T07:18:52;1.98;;;0.70;;
11496;SDS011;5805;51.542;7.230;2022-12-29T07:21:18;4.28;;;0.93;;
11496;SDS011;5805;51.542;7.230;2022-12-29T07:23:44;4.82;;;0.88;;
11496;SDS011;5805;51.542;7.230;2022-12-29T07:26:11;2.53;;;0.75;;
11496;SDS011;5805;51.542;7.230;2022-12-29T07:28:38;2.53;;;0.77;;
11496;SDS011;5805;51.542;7.230;2022-12-29T07:31:05;2.00;;;0.80;;
11496;SDS011;5805;51.542;7.230;2022-12-29T07:33:39;2.80;;;0.77;;
11496;SDS011;5805;51.542;7.230;2022-12-29T07:36:06;0.77;;;0.55;;
11496;SDS011;5805;51.542;7.230;2022-12-29T07:38:32;1.05;;;0.65;;
11496;SDS011;5805;51.542;7.230;2022-12-29T07:40:58;3.97;;;0.95;;
11496;SDS011;5805;51.542;7.230;2022-12-29T07:43:24;1.75;;;0.77;;
11496;SDS011;5805;51.542;7.230;2022-12-29T07:45:49;1.33;;;0.60;;
11496;SDS011;5805;51.542;7.230;2022-12-29T07:48:16;4.10;;;0.80;;
11496;SDS011;5805;51.542;7.230;2022-12-29T07:50:42;2.22;;;0.40;;
11496;SDS011;5805;51.542;7.230;2022-12-29T07:53:08;2.88;;;0.60;;
11496;SDS011;5805;51.542;7.230;2022-12-29T07:55:33;2.95;;;0.90;;
11496;SDS011;5805;51.542;7.230;2022-12-29T07:57:59;4.22;;;0.90;;
11496;SDS011;5805;51.542;7.230;2022-12-29T08:00:25;0.82;;;0.43;;
11496;SDS011;5805;51.542;7.230;2022-12-29T08:02:51;3.33;;;0.73;;
11496;SDS011;5805;51.542;7.230;2022-12-29T08:05:18;1.90;;;0.73;;
11496;SDS011;5805;51.542;7.230;2022-12-29T08:07:44;4.00;;;0.90;;
11496;SDS011;5805;51.542;7.230;2022-12-29T08:10:10;1.75;;;0.70;;
11496;SDS011;5805;51.542;7.230;2022-12-29T08:12:37;2.78;;;0.90;;
11496;SDS011;5805;51.542;7.230;2022-12-29T08:15:04;5.22;;;1.30;;
11496;SDS011;5805;51.542;7.230;2022-12-29T08:17:30;2.20;;;0.98;;
11496;SDS011;5805;51.542;7.230;2022-12-29T08:19:56;4.85;;;1.02;;
11496;SDS011;5805;51.542;7.230;2022-12-29T08:22:23;3.63;;;0.73;;
11496;SDS011;5805;51.542;7.230;2022-12-29T08:24:49;4.15;;;1.15;;
11496;SDS011;5805;51.542;7.230;2022-12-29T08:27:15;2.35;;;0.85;;
11496;SDS011;5805;51.542;7.230;2022-12-29T08:29:41;1.48;;;0.70;;
11496;SDS011;5805;51.542;7.230;2022-12-29T08:32:06;2.33;;;1.20;;
11496;SDS011;5805;51.542;7.230;2022-12-29T08:34:32;5.47;;;1.73;;
11496;SDS011;5805;51.542;7.230;2022-12-29T08:36:58;2.78;;;0.85;;
11496;SDS011;5805;51.542;7.230;2022-12-29T08:39:25;1.83;;;1.15;;
11496;SDS011;5805;51.542;7.230;2022-12-29T08:41:51;5.00;;;1.80;;
11496;SDS011;5805;51.542;7.230;2022-12-29T08:44:16;3.35;;;1.20;;
11496;SDS011;5805;51.542;7.230;2022-12-29T08:46:42;5.55;;;1.08;;
11496;SDS011;5805;51.542;7.230;2022-12-29T08:49:08;4.55;;;1.30;;
11496;SDS011;5805;51.542;7.230;2022-12-29T08:51:33;2.30;;;1.00;;
11496;SDS011;5805;51.542;7.230;2022-12-29T08:53:59;3.58;;;1.08;;
11496;SDS011;5805;51.542;7.230;2022-12-29T08:56:27;2.40;;;0.70;;
11496;SDS011;5805;51.542;7.230;2022-12-29T08:58:52;6.70;;;1.02;;
11496;SDS011;5805;51.542;7.230;2022-12-29T09:01:18;2.53;;;0.93;;
11496;SDS011;5805;51.542;7.230;2022-12-29T09:03:44;4.60;;;1.17;;
11496;SDS011;5805;51.542;7.230;2022-12-29T09:06:10;5.55;;;1.00;;
11496;SDS011;5805;51.542;7.230;2022-12-29T09:08:36;5.72;;;1.27;;
11496;SDS011;5805;51.542;7.230;2022-12-29T09:11:05;3.88;;;1.25;;
11496;SDS011;5805;51.542;7.230;2022-12-29T09:13:34;5.63;;;1.10;;
11496;SDS011;5805;51.542;7.230;2022-12-29T09:16:00;3.13;;;0.85;;
11496;SDS011;5805;51.542;7.230;2022-12-29T09:18:27;5.95;;;1.20;;
11496;SDS011;5805;51.542;7.230;2022-12-29T09:20:55;3.92;;;1.20;;
11496;SDS011;5805;51.542;7.230;2022-12-29T09:23:21;6.13;;;1.10;;
11496;SDS011;5805;51.542;7.230;2022-12-29T09:25:47;6.20;;;0.88;;
11496;SDS011;5805;51.542;7.230;2022-12-29T09:28:12;5.28;;;1.23;;
11496;SDS011;5805;51.542;7.230;2022-12-29T09:30:41;3.38;;;1.20;;
11496;SDS011;5805;51.542;7.230;2022-12-29T09:33:06;5.70;;;1.27;;
11496;SDS011;5805;51.542;7.230;2022-12-29T09:35:32;3.67;;;1.70;;
11496;SDS011;5805;51.542;7.230;2022-12-29T09:37:58;4.25;;;1.25;;
11496;SDS011;5805;51.542;7.230;2022-12-29T09:40:25;4.80;;;1.52;;
11496;SDS011;5805;51.542;7.230;2022-12-29T09:43:05;5.03;;;1.50;;
11496;SDS011;5805;51.542;7.230;2022-12-29T09:45:50;4.20;;;1.20;;
11496;SDS011;5805;51.542;7.230;2022-12-29T09:48:25;3.35;;;1.10;;
11496;SDS011;5805;51.542;7.230;2022-12-29T09:51:07;7.95;;;1.38;;
11496;SDS011;5805;51.542;7.230;2022-12-29T09:53:35;3.88;;;1.40;;
11496;SDS011;5805;51.542;7.230;2022-12-29T09:56:04;2.70;;;1.10;;
11496;SDS011;5805;51.542;7.230;2022-12-29T09:58:47;3.67;;;1.05;;
11496;SDS011;5805;51.542;7.230;2022-12-29T10:01:21;7.47;;;1.30;;
11496;SDS011;5805;51.542;7.230;2022-12-29T10:03:54;3.95;;;1.10;;
11496;SDS011;5805;51.542;7.230;2022-12-29T10:06:38;2.60;;;1.00;;
11496;SDS011;5805;51.542;7.230;2022-12-29T10:09:11;4.55;;;1.05;;
11496;SDS011;5805;51.542;7.230;2022-12-29T10:11:49;6.20;;;1.42;;
11496;SDS011;5805;51.542;7.230;2022-12-29T10:14:38;6.18;;;0.90;;
11496;SDS011;5805;51.542;7.230;2022-12-29T10:17:21;3.95;;;1.08;;
11496;SDS011;5805;51.542;7.230;2022-12-29T10:19:54;5.47;;;1.60;;
11496;SDS011;5805;51.542;7.230;2022-12-29T10:22:35;3.60;;;1.42;;
11496;SDS011;5805;51.542;7.230;2022-12-29T10:25:15;4.07;;;1.20;;
11496;SDS011;5805;51.542;7.230;2022-12-29T10:27:43;5.43;;;1.13;;
11496;SDS011;5805;51.542;7.230;2022-12-29T10:30:13;3.05;;;1.27;;
11496;SDS011;5805;51.542;7.230;2022-12-29T10:32:42;3.92;;;1.13;;
11496;SDS011;5805;51.542;7.230;2022-12-29T10:35:13;3.65;;;1.20;;
11496;SDS011;5805;51.542;7.230;2022-12-29T10:37:42;3.70;;;1.08;;
11496;SDS011;5805;51.542;7.230;2022-12-29T10:40:15;5.43;;;1.05;;
11496;SDS011;5805;51.542;7.230;2022-12-29T10:42:48;5.28;;;1.05;;
11496;SDS011;5805;51.542;7.230;2022-12-29T10:45:17;4.63;;;1.27;;
11496;SDS011;5805;51.542;7.230;2022-12-29T10:47:49;2.95;;;1.05;;
11496;SDS011;5805;51.542;7.230;2022-12-29T10:50:18;5.65;;;1.23;;
11496;SDS011;5805;51.542;7.230;2022-12-29T10:52:44;8.30;;;1.17;;
11496;SDS011;5805;51.542;7.230;2022-12-29T10:55:12;4.35;;;1.20;;
11496;SDS011;5805;51.542;7.230;2022-12-29T10:57:40;5.45;;;1.48;;
11496;SDS011;5805;51.542;7.230;2022-12-29T11:00:10;2.67;;;0.93;;
11496;SDS011;5805;51.542;7.230;2022-12-29T11:02:47;5.57;;;1.55;;
11496;SDS011;5805;51.542;7.230;2022-12-29T11:05:39;4.85;;;1.10;;
11496;SDS011;5805;51.542;7.230;2022-12-29T11:08:10;4.75;;;1.33;;
11496;SDS011;5805;51.542;7.230;2022-12-29T11:10:39;2.40;;;0.90;;
11496;SDS011;5805;51.542;7.230;2022-12-29T11:13:10;4.03;;;1.00;;
11496;SDS011;5805;51.542;7.230;2022-12-29T11:15:38;4.30;;;1.50;;
11496;SDS011;5805;51.542;7.230;2022-12-29T11:18:07;3.42;;;0.90;;
11496;SDS011;5805;51.542;7.230;2022-12-29T11:20:45;5.90;;;1.38;;
11496;SDS011;5805;51.542;7.230;2022-12-29T11:23:21;2.05;;;1.00;;
11496;SDS011;5805;51.542;7.230;2022-12-29T11:25:55;3.97;;;1.35;;
11496;SDS011;5805;51.542;7.230;2022-12-29T11:28:31;4.40;;;1.50;;
11496;SDS011;5805;51.542;7.230;2022-12-29T11:30:58;3.78;;;1.45;;
11496;SDS011;5805;51.542;7.230;2022-12-29T11:33:25;3.95;;;1.25;;
11496;SDS011;5805;51.542;7.230;2022-12-29T11:35:53;8.70;;;1.27;;
11496;SDS011;5805;51.542;7.230;2022-12-29T11:38:23;6.72;;;1.42;;
11496;SDS011;5805;51.542;7.230;2022-12-29T11:40:53;4.90;;;1.20;;
11496;SDS011;5805;51.542;7.230;2022-12-29T11:43:21;7.10;;;1.70;;
11496;SDS011;5805;51.542;7.230;2022-12-29T11:45:56;5.15;;;1.35;;
11496;SDS011;5805;51.542;7.230;2022-12-29T11:48:21;6.55;;;1.05;;
11496;SDS011;5805;51.542;7.230;2022-12-29T11:50:51;3.20;;;1.17;;
11496;SDS011;5805;51.542;7.230;2022-12-29T11:53:20;3.22;;;1.20;;
11496;SDS011;5805;51.542;7.230;2022-12-29T11:55:52;3.63;;;1.20;;
11496;SDS011;5805;51.542;7.230;2022-12-29T11:58:19;3.65;;;0.90;;
11496;SDS011;5805;51.542;7.230;2022-12-29T12:00:45;7.35;;;1.20;;
11496;SDS011;5805;51.542;7.230;2022-12-29T12:03:13;5.63;;;1.10;;
11496;SDS011;5805;51.542;7.230;2022-12-29T12:05:43;5.28;;;1.45;;
11496;SDS011;5805;51.542;7.230;2022-12-29T12:08:14;8.23;;;1.63;;
11496;SDS011;5805;51.542;7.230;2022-12-29T12:10:46;9.82;;;1.63;;
11496;SDS011;5805;51.542;7.230;2022-12-29T12:13:17;7.35;;;1.70;;
11496;SDS011;5805;51.542;7.230;2022-12-29T12:15:49;5.03;;;1.10;;
11496;SDS011;5805;51.542;7.230;2022-12-29T12:18:21;5.05;;;1.30;;
11496;SDS011;5805;51.542;7.230;2022-12-29T12:21:06;5.05;;;1.05;;
11496;SDS011;5805;51.542;7.230;2022-12-29T12:23:43;7.53;;;1.77;;
11496;SDS011;5805;51.542;7.230;2022-12-29T12:26:18;6.05;;;1.45;;
11496;SDS011;5805;51.542;7.230;2022-12-29T12:28:48;4.70;;;1.25;;
11496;SDS011;5805;51.542;7.230;2022-12-29T12:31:21;2.80;;;1.33;;
11496;SDS011;5805;51.542;7.230;2022-12-29T12:33:53;4.65;;;1.45;;
11496;SDS011;5805;51.542;7.230;2022-12-29T12:36:46;4.20;;;1.10;;
11496;SDS011;5805;51.542;7.230;2022-12-29T12:39:30;6.25;;;1.50;;
11496;SDS011;5805;51.542;7.230;2022-12-29T12:42:08;3.55;;;1.40;;
11496;SDS011;5805;51.542;7.230;2022-12-29T12:44:48;7.45;;;1.63;;
11496;SDS011;5805;51.542;7.230;2022-12-29T12:47:27;4.28;;;1.17;;
11496;SDS011;5805;51.542;7.230;2022-12-29T12:50:18;6.57;;;1.60;;
11496;SDS011;5805;51.542;7.230;2022-12-29T12:53:09;3.92;;;1.33;;
11496;SDS011;5805;51.542;7.230;2022-12-29T12:58:54;4.75;;;1.23;;
11496;SDS011;5805;51.542;7.230;2022-12-29T13:01:34;4.25;;;1.40;;
11496;SDS011;5805;51.542;7.230;2022-12-29T13:04:13;3.95;;;1.50;;
11496;SDS011;5805;51.542;7.230;2022-12-29T13:07:01;5.15;;;1.38;;
11496;SDS011;5805;51.542;7.230;2022-12-29T13:09:39;5.88;;;1.33;;
11496;SDS011;5805;51.542;7.230;2022-12-29T13:12:25;5.55;;;1.17;;
11496;SDS011;5805;51.542;7.230;2022-12-29T13:15:03;8.57;;;1.40;;
11496;SDS011;5805;51.542;7.230;2022-12-29T13:17:39;6.97;;;1.75;;
11496;SDS011;5805;51.542;7.230;2022-12-29T13:20:16;4.30;;;1.15;;
11496;SDS011;5805;51.542;7.230;2022-12-29T13:22:48;5.70;;;1.65;;
11496;SDS011;5805;51.542;7.230;2022-12-29T13:25:21;4.60;;;1.30;;
11496;SDS011;5805;51.542;7.230;2022-12-29T13:27:54;4.20;;;1.45;;
11496;SDS011;5805;51.542;7.230;2022-12-29T13:30:26;10.13;;;1.90;;
11496;SDS011;5805;51.542;7.230;2022-12-29T13:32:59;6.15;;;0.90;;
11496;SDS011;5805;51.542;7.230;2022-12-29T13:35:35;5.22;;;1.35;;
11496;SDS011;5805;51.542;7.230;2022-12-29T13:38:11;4.85;;;1.10;;
11496;SDS011;5805;51.542;7.230;2022-12-29T13:40:44;4.57;;;1.40;;
11496;SDS011;5805;51.542;7.230;2022-12-29T13:43:16;6.15;;;1.95;;
11496;SDS011;5805;51.542;7.230;2022-12-29T13:45:45;4.97;;;1.40;;
11496;SDS011;5805;51.542;7.230;2022-12-29T13:48:14;5.68;;;1.35;;
11496;SDS011;5805;51.542;7.230;2022-12-29T13:50:45;8.73;;;1.92;;
11496;SDS011;5805;51.542;7.230;2022-12-29T13:53:16;4.45;;;1.35;;
11496;SDS011;5805;51.542;7.230;2022-12-29T13:55:49;6.85;;;1.60;;
11496;SDS011;5805;51.542;7.230;2022-12-29T13:58:24;4.95;;;1.08;;
11496;SDS011;5805;51.542;7.230;2022-12-29T14:00:57;3.92;;;1.17;;
11496;SDS011;5805;51.542;7.230;2022-12-29T14:03:35;5.80;;;1.50;;
11496;SDS011;5805;51.542;7.230;2022-12-29T14:06:15;5.90;;;1.52;;
11496;SDS011;5805;51.542;7.230;2022-12-29T14:08:48;3.95;;;1.45;;
11496;SDS011;5805;51.542;7.230;2022-12-29T14:11:16;7.72;;;1.33;;
11496;SDS011;5805;51.542;7.230;2022-12-29T14:13:46;4.53;;;1.25;;
11496;SDS011;5805;51.542;7.230;2022-12-29T14:16:22;4.88;;;1.55;;
11496;SDS011;5805;51.542;7.230;2022-12-29T14:18:51;7.57;;;1.75;;
11496;SDS011;5805;51.542;7.230;2022-12-29T14:21:18;11.23;;;2.40;;
11496;SDS011;5805;51.542;7.230;2022-12-29T14:23:46;6.95;;;1.13;;
11496;SDS011;5805;51.542;7.230;2022-12-29T14:26:14;7.82;;;1.90;;
11496;SDS011;5805;51.542;7.230;2022-12-29T14:28:42;6.03;;;1.63;;
11496;SDS011;5805;51.542;7.230;2022-12-29T14:36:56;8.13;;;1.90;;
11496;SDS011;5805;51.542;7.230;2022-12-29T14:39:34;6.13;;;1.45;;
11496;SDS011;5805;51.542;7.230;2022-12-29T14:42:03;5.05;;;1.50;;
11496;SDS011;5805;51.542;7.230;2022-12-29T14:44:31;4.45;;;1.60;;
11496;SDS011;5805;51.542;7.230;2022-12-29T14:46:59;3.85;;;1.38;;
11496;SDS011;5805;51.542;7.230;2022-12-29T14:49:30;5.50;;;1.63;;
11496;SDS011;5805;51.542;7.230;2022-12-29T14:52:05;5.18;;;1.60;;
11496;SDS011;5805;51.542;7.230;2022-12-29T14:57:21;4.38;;;1.42;;
11496;SDS011;5805;51.542;7.230;2022-12-29T14:59:52;5.70;;;1.70;;
11496;SDS011;5805;51.542;7.230;2022-12-29T15:02:23;3.88;;;1.65;;
11496;SDS011;5805;51.542;7.230;2022-12-29T15:04:53;4.00;;;1.48;;
11496;SDS011;5805;51.542;7.230;2022-12-29T15:07:25;7.32;;;1.98;;
11496;SDS011;5805;51.542;7.230;2022-12-29T15:09:53;6.28;;;1.35;;
11496;SDS011;5805;51.542;7.230;2022-12-29T15:12:23;5.57;;;1.70;;
11496;SDS011;5805;51.542;7.230;2022-12-29T15:14:59;4.68;;;1.17;;
11496;SDS011;5805;51.542;7.230;2022-12-29T15:17:27;5.97;;;1.63;;
11496;SDS011;5805;51.542;7.230;2022-12-29T15:19:54;4.40;;;1.25;;
11496;SDS011;5805;51.542;7.230;2022-12-29T15:22:21;10.40;;;1.60;;
11496;SDS011;5805;51.542;7.230;2022-12-29T15:24:49;4.15;;;1.42;;
11496;SDS011;5805;51.542;7.230;2022-12-29T15:27:17;2.83;;;1.05;;